Aquilla, Texas
Current Conditions -  °F | °C
As of 9:51 PM on Sunday 25 Jan 2015 (Local Time) from KACT Reporting Station
Clear Clear  
Wind Chill: 37°   Ceiling: Unl
Heat Index: 42°   Visibility: 10mi
Dew Point: 31°   Wind: 9mph
Humidity: 65%   Direction: 280°W
Pressure: 30.19"   Gusts: NA
Location:  31.85°N, 97.22°W
Report Text: KACT 260351Z 28008KT 10SM CLR 06/M01 A3019 RMK AO2 SLP222 T00561006
Loading
Personal Weather Stations






























Interactive Weather Map New forecast layout! Learn more

10-Day Weather Forecast

Advertisements
Track Severe Weather on mobile